Time;durP1;ratioP1;P1;durP2;ratioP2;P2;SDS_P1;SDS_P2;PMS_P1;PMS_P2;Temp;Humidity;BMP_temperature;BMP_pressure;BME280_temperature;BME280_humidity;BME280_pressure;Samples;Min_cycle;Max_cycle;Signal;HPM_P1;HPM_P2
2024/03/10 00:01:02;;;;;;;3.17;2.93;;;10.40;1.00;;;;;;5002817;28;20227;-65
2024/03/10 00:03:31;;;;;;;3.10;2.90;;;10.50;1.00;;;;;;5009455;28;20777;-65
2024/03/10 00:06:00;;;;;;;3.40;3.20;;;10.40;1.00;;;;;;5039230;28;20224;-65
2024/03/10 00:08:28;;;;;;;3.10;2.90;;;10.40;1.00;;;;;;5009428;28;20190;-65
2024/03/10 00:10:58;;;;;;;3.40;3.10;;;10.40;1.00;;;;;;5008789;28;20584;-65
2024/03/10 00:13:29;;;;;;;3.23;3.03;;;10.40;1.00;;;;;;5007380;28;20234;-65
2024/03/10 00:15:58;;;;;;;2.87;2.77;;;10.40;1.00;;;;;;5009267;28;20226;-65
2024/03/10 00:18:26;;;;;;;3.70;3.20;;;10.40;1.00;;;;;;5008844;28;20218;-65
2024/03/10 00:20:55;;;;;;;3.43;3.00;;;10.40;1.00;;;;;;5001716;28;20318;-65
2024/03/10 00:23:24;;;;;;;6.67;3.70;;;10.40;1.00;;;;;;4987567;28;20244;-65
2024/03/10 00:25:52;;;;;;;4.03;3.23;;;10.50;1.00;;;;;;5001015;28;20224;-65
2024/03/10 00:28:21;;;;;;;3.77;3.30;;;10.40;1.00;;;;;;5021758;28;20329;-65
2024/03/10 00:30:50;;;;;;;3.77;3.10;;;10.40;1.00;;;;;;5008675;28;20213;-65
2024/03/10 00:33:19;;;;;;;5.80;3.17;;;10.40;1.00;;;;;;5005369;28;20606;-65
2024/03/10 00:35:48;;;;;;;3.80;3.37;;;10.30;1.00;;;;;;5000252;28;20252;-65
2024/03/10 00:38:18;;;;;;;3.30;3.10;;;10.30;1.00;;;;;;4999507;28;20595;-65
2024/03/10 00:40:50;;;;;;;3.93;3.60;;;10.20;1.00;;;;;;5008209;28;20222;-65
2024/03/10 00:43:18;;;;;;;5.17;3.37;;;10.20;1.00;;;;;;5007591;28;20245;-65
2024/03/10 00:45:49;;;;;;;3.40;3.10;;;10.20;1.00;;;;;;5010100;28;20710;-65
2024/03/10 00:48:20;;;;;;;6.57;3.40;;;10.20;1.00;;;;;;5005103;28;20229;-65
2024/03/10 00:50:49;;;;;;;5.43;3.70;;;10.20;1.00;;;;;;5009789;28;20301;-65
2024/03/10 00:53:18;;;;;;;3.70;3.40;;;10.20;1.00;;;;;;5003275;28;20198;-65
2024/03/10 00:55:47;;;;;;;3.70;3.50;;;10.30;1.00;;;;;;5008722;28;20218;-65
2024/03/10 00:58:17;;;;;;;3.70;3.40;;;10.30;1.00;;;;;;5023429;28;20232;-65
2024/03/10 01:00:45;;;;;;;4.67;4.10;;;10.20;1.00;;;;;;5008035;28;20225;-65
2024/03/10 01:03:15;;;;;;;4.10;3.47;;;10.20;1.00;;;;;;5009828;28;20612;-65
2024/03/10 01:05:46;;;;;;;4.47;3.77;;;10.10;1.00;;;;;;5009178;28;20218;-65
2024/03/10 01:08:14;;;;;;;5.20;4.10;;;10.10;1.00;;;;;;5000663;28;20198;-65
2024/03/10 01:10:43;;;;;;;4.10;3.70;;;10.10;1.00;;;;;;5007871;28;20249;-65
2024/03/10 01:13:13;;;;;;;4.20;3.80;;;10.10;1.00;;;;;;5005282;28;20218;-65
2024/03/10 01:15:41;;;;;;;4.90;4.50;;;10.10;1.00;;;;;;5006754;28;20367;-65
2024/03/10 01:18:10;;;;;;;5.50;4.47;;;10.00;1.00;;;;;;5007591;28;20226;-65
2024/03/10 01:20:38;;;;;;;8.40;4.80;;;10.00;1.00;;;;;;5007416;28;20194;-65
2024/03/10 01:23:10;;;;;;;5.17;4.60;;;10.00;1.00;;;;;;5008177;28;20676;-65
2024/03/10 01:25:38;;;;;;;6.17;4.80;;;10.00;1.00;;;;;;5008604;28;20228;-65
2024/03/10 01:28:07;;;;;;;7.03;5.10;;;10.00;1.00;;;;;;5010240;28;20584;-65
2024/03/10 01:30:35;;;;;;;5.13;4.63;;;9.90;1.00;;;;;;5010506;28;20617;-65
2024/03/10 01:33:04;;;;;;;6.37;5.33;;;9.90;1.00;;;;;;5013278;28;20249;-65
2024/03/10 01:35:36;;;;;;;8.97;5.67;;;9.90;1.00;;;;;;5011310;28;20206;-65
2024/03/10 01:38:05;;;;;;;9.33;5.40;;;9.80;1.00;;;;;;5014240;28;20222;-65
2024/03/10 01:40:34;;;;;;;10.00;5.90;;;9.90;1.00;;;;;;5012745;28;20228;-65
2024/03/10 01:43:04;;;;;;;9.33;6.43;;;9.90;1.00;;;;;;5012177;28;20724;-65
2024/03/10 01:45:33;;;;;;;6.73;5.80;;;9.90;1.00;;;;;;5014738;28;20224;-65
2024/03/10 01:48:02;;;;;;;9.83;6.00;;;9.90;1.00;;;;;;5012646;28;20760;-65
2024/03/10 01:50:31;;;;;;;12.30;6.13;;;9.90;1.00;;;;;;5011089;28;20583;-65
2024/03/10 01:53:00;;;;;;;9.00;6.37;;;9.90;1.00;;;;;;5012716;28;20204;-65
2024/03/10 01:55:29;;;;;;;10.27;7.17;;;9.80;1.00;;;;;;5010634;28;20699;-65
2024/03/10 01:58:00;;;;;;;10.23;6.47;;;9.80;1.00;;;;;;5011166;28;20320;-65
2024/03/10 02:00:28;;;;;;;10.00;6.80;;;9.70;1.00;;;;;;5010671;28;20271;-65
2024/03/10 02:02:58;;;;;;;11.67;6.77;;;9.70;1.00;;;;;;5011409;28;20256;-65
2024/03/10 02:05:27;;;;;;;8.80;6.63;;;9.70;1.00;;;;;;5012238;28;20280;-64
2024/03/10 02:07:56;;;;;;;15.83;7.40;;;9.70;1.00;;;;;;5013225;28;20201;-65
2024/03/10 02:10:25;;;;;;;10.73;6.60;;;9.70;1.00;;;;;;5011352;28;20265;-65
2024/03/10 02:12:55;;;;;;;10.63;7.57;;;9.70;1.00;;;;;;5011123;28;20217;-65
2024/03/10 02:15:24;;;;;;;11.13;7.87;;;9.70;1.00;;;;;;5005513;28;20240;-65
2024/03/10 02:17:53;;;;;;;11.90;7.40;;;9.70;1.00;;;;;;5012859;28;20245;-63
2024/03/10 02:20:21;;;;;;;12.90;8.20;;;9.70;1.00;;;;;;5012050;28;20281;-64
2024/03/10 02:22:50;;;;;;;12.73;8.63;;;9.80;1.00;;;;;;5009073;28;20273;-63
2024/03/10 02:25:23;;;;;;;13.07;8.50;;;9.80;1.00;;;;;;5010894;28;20214;-65
2024/03/10 02:27:54;;;;;;;14.53;8.80;;;9.80;1.00;;;;;;5010589;28;20221;-65
2024/03/10 02:30:31;;;;;;;13.07;8.63;;;9.80;1.00;;;;;;5009787;28;20237;-64
2024/03/10 02:49:37;;;;;;;16.43;9.33;;;9.70;1.00;;;;;;5011270;28;20233;-65
2024/03/10 02:52:05;;;;;;;15.37;9.47;;;9.70;1.00;;;;;;5012250;28;20245;-65
2024/03/10 02:54:34;;;;;;;18.87;10.50;;;9.70;1.00;;;;;;5011121;28;21997;-65
2024/03/10 02:57:02;;;;;;;13.53;9.07;;;9.70;1.00;;;;;;5010491;28;20225;-65
2024/03/10 02:59:32;;;;;;;18.03;10.13;;;9.60;1.00;;;;;;5010777;28;20210;-64
2024/03/10 03:02:00;;;;;;;15.40;10.07;;;9.60;1.00;;;;;;5010712;28;20622;-64
2024/03/10 03:04:30;;;;;;;18.53;10.67;;;9.60;1.00;;;;;;5009677;28;20288;-64
2024/03/10 03:06:59;;;;;;;14.77;10.43;;;9.60;1.00;;;;;;5010271;28;20216;-64
2024/03/10 03:09:28;;;;;;;16.20;10.63;;;9.60;1.00;;;;;;5004353;28;20223;-64
2024/03/10 03:11:57;;;;;;;20.00;10.63;;;9.60;1.00;;;;;;5009720;28;20685;-64
2024/03/10 03:14:26;;;;;;;18.40;11.37;;;9.70;1.00;;;;;;5006930;28;20220;-64
2024/03/10 03:16:56;;;;;;;19.13;11.80;;;9.60;1.00;;;;;;5010682;28;20194;-64
2024/03/10 03:19:26;;;;;;;16.93;11.10;;;9.60;1.00;;;;;;5011176;28;20226;-64
2024/03/10 03:21:54;;;;;;;17.43;11.17;;;9.60;1.00;;;;;;5009852;28;20225;-64
2024/03/10 03:24:23;;;;;;;17.47;11.13;;;9.70;1.00;;;;;;5009282;28;20309;-64
2024/03/10 03:26:51;;;;;;;20.10;12.00;;;9.70;1.00;;;;;;5010262;28;20591;-64
2024/03/10 03:29:20;;;;;;;20.57;11.60;;;9.70;1.00;;;;;;5010882;28;20518;-64
2024/03/10 03:31:49;;;;;;;21.13;12.17;;;9.70;1.00;;;;;;5008600;28;20257;-64
2024/03/10 03:34:19;;;;;;;21.10;12.40;;;9.60;1.00;;;;;;5010111;28;20222;-64
2024/03/10 03:36:47;;;;;;;22.00;12.33;;;9.60;1.00;;;;;;5009224;28;20218;-64
2024/03/10 03:39:16;;;;;;;21.80;11.53;;;9.60;1.00;;;;;;5011225;28;20446;-64
2024/03/10 03:41:44;;;;;;;22.17;11.57;;;9.50;1.00;;;;;;5010381;28;20234;-64
2024/03/10 03:44:13;;;;;;;23.83;11.77;;;9.50;1.00;;;;;;5010567;28;20210;-64
2024/03/10 03:46:41;;;;;;;18.17;11.33;;;9.40;1.00;;;;;;5005581;28;20945;-65
2024/03/10 03:49:09;;;;;;;19.70;11.53;;;9.40;1.00;;;;;;5009383;28;20225;-64
2024/03/10 03:51:39;;;;;;;19.30;11.90;;;9.30;1.00;;;;;;5009976;28;20289;-64
2024/03/10 03:54:08;;;;;;;18.93;12.10;;;9.30;1.00;;;;;;5007697;28;20221;-64
2024/03/10 03:56:36;;;;;;;23.13;12.30;;;9.30;1.00;;;;;;5008832;28;20202;-64
2024/03/10 03:59:05;;;;;;;20.73;12.47;;;9.30;1.00;;;;;;5010599;28;20194;-64
2024/03/10 04:01:34;;;;;;;21.67;13.07;;;9.40;1.00;;;;;;5008605;28;20221;-64
2024/03/10 04:04:03;;;;;;;20.23;12.03;;;9.40;1.00;;;;;;5008472;28;20230;-64
2024/03/10 04:06:32;;;;;;;21.40;12.40;;;9.40;1.00;;;;;;5009836;28;20220;-64
2024/03/10 04:09:02;;;;;;;19.60;12.43;;;9.40;1.00;;;;;;5006369;28;20257;-64
2024/03/10 04:11:31;;;;;;;19.27;12.17;;;9.50;1.00;;;;;;5007925;28;20222;-64
2024/03/10 04:14:00;;;;;;;21.27;11.67;;;9.50;1.00;;;;;;5005578;28;20273;-65
2024/03/10 04:16:29;;;;;;;19.17;11.77;;;9.40;1.00;;;;;;5009598;28;20214;-64
2024/03/10 04:18:58;;;;;;;20.37;11.93;;;9.40;1.00;;;;;;5004274;28;20229;-64
2024/03/10 04:21:28;;;;;;;20.90;12.07;;;9.30;1.00;;;;;;5008762;28;20232;-64
2024/03/10 04:23:56;;;;;;;21.40;12.57;;;9.30;1.00;;;;;;5006974;28;20222;-65
2024/03/10 04:26:27;;;;;;;20.70;12.17;;;9.30;1.00;;;;;;5012223;28;20190;-64
2024/03/10 04:28:56;;;;;;;20.63;12.73;;;9.20;1.00;;;;;;5005100;28;20652;-65
2024/03/10 04:31:25;;;;;;;19.80;12.33;;;9.20;1.00;;;;;;5006838;28;20666;-65
2024/03/10 04:33:53;;;;;;;20.03;12.90;;;9.20;1.00;;;;;;5008321;28;20225;-64
2024/03/10 04:36:21;;;;;;;22.20;11.73;;;9.20;1.00;;;;;;5007207;28;20565;-65
2024/03/10 04:38:51;;;;;;;19.50;11.93;;;9.20;1.00;;;;;;5008975;28;20217;-65
2024/03/10 04:41:20;;;;;;;19.20;12.13;;;9.20;1.00;;;;;;5009079;28;20217;-65
2024/03/10 04:43:51;;;;;;;19.70;12.33;;;9.20;1.00;;;;;;5007989;28;20218;-64
2024/03/10 04:46:19;;;;;;;19.70;11.80;;;9.20;1.00;;;;;;5008649;28;20289;-63
2024/03/10 04:48:48;;;;;;;17.73;11.30;;;9.20;1.00;;;;;;5008865;28;20284;-63
2024/03/10 04:51:17;;;;;;;17.70;11.40;;;9.20;1.00;;;;;;5008243;28;20744;-64
2024/03/10 04:53:45;;;;;;;19.60;11.70;;;9.20;1.00;;;;;;5008427;28;20588;-64
2024/03/10 04:56:13;;;;;;;19.13;11.23;;;9.10;1.00;;;;;;5006041;28;20210;-64
2024/03/10 04:58:42;;;;;;;18.77;11.53;;;9.10;1.00;;;;;;5008989;28;20229;-64
2024/03/10 05:01:13;;;;;;;23.77;11.97;;;9.10;1.00;;;;;;5006261;28;20217;-64
2024/03/10 05:03:42;;;;;;;17.73;11.63;;;9.00;1.00;;;;;;5010535;28;20225;-64
2024/03/10 05:06:10;;;;;;;17.63;11.40;;;9.00;1.00;;;;;;5012811;28;20321;-64
2024/03/10 05:08:39;;;;;;;20.40;11.90;;;9.00;1.00;;;;;;5013749;28;20206;-64
2024/03/10 05:11:07;;;;;;;16.20;10.30;;;8.90;1.00;;;;;;5011530;28;20230;-64
2024/03/10 05:13:36;;;;;;;20.60;12.97;;;8.90;1.00;;;;;;5012476;28;20220;-63
2024/03/10 05:16:05;;;;;;;19.37;11.00;;;8.90;1.00;;;;;;5013100;28;20225;-64
2024/03/10 05:18:35;;;;;;;17.10;11.50;;;8.90;1.00;;;;;;5011188;28;20232;-63
2024/03/10 05:21:03;;;;;;;19.27;11.43;;;8.90;1.00;;;;;;5012187;28;20317;-64
2024/03/10 05:23:32;;;;;;;18.73;12.27;;;8.80;1.00;;;;;;5011939;28;20576;-64
2024/03/10 05:26:00;;;;;;;20.50;12.60;;;8.80;1.00;;;;;;5012455;28;20193;-64
2024/03/10 05:28:29;;;;;;;18.07;11.80;;;8.80;1.00;;;;;;5012869;28;20224;-64
2024/03/10 05:30:57;;;;;;;22.37;13.20;;;8.80;1.00;;;;;;5012753;28;20261;-64
2024/03/10 05:33:25;;;;;;;20.90;12.77;;;8.80;1.00;;;;;;5010133;28;20230;-64
2024/03/10 05:35:55;;;;;;;20.10;11.90;;;8.80;1.00;;;;;;5012430;28;20340;-64
2024/03/10 05:38:23;;;;;;;21.97;13.03;;;8.70;1.00;;;;;;5011804;28;20196;-64
2024/03/10 05:40:53;;;;;;;19.57;11.63;;;8.70;1.00;;;;;;5011655;28;20218;-64
2024/03/10 05:43:22;;;;;;;19.60;11.53;;;8.70;1.00;;;;;;5013689;28;20225;-64
2024/03/10 05:45:50;;;;;;;21.73;12.80;;;8.70;1.00;;;;;;5012788;28;20222;-65
2024/03/10 05:48:18;;;;;;;22.60;12.23;;;8.70;1.00;;;;;;5013031;28;20256;-64
2024/03/10 05:50:48;;;;;;;21.37;13.03;;;8.70;1.00;;;;;;5012308;28;20225;-64
2024/03/10 05:53:18;;;;;;;21.00;11.70;;;8.70;1.00;;;;;;5013462;28;20198;-64
2024/03/10 05:55:46;;;;;;;20.47;12.60;;;8.60;1.00;;;;;;5011703;28;20221;-65
2024/03/10 05:58:16;;;;;;;19.70;12.40;;;8.60;1.00;;;;;;5012307;28;20712;-65
2024/03/10 06:00:45;;;;;;;21.40;11.97;;;8.60;1.00;;;;;;5010807;28;20287;-65
2024/03/10 06:03:13;;;;;;;17.00;11.60;;;8.50;1.00;;;;;;5012395;28;20280;-64
2024/03/10 06:05:42;;;;;;;19.67;12.77;;;8.50;2.10;;;;;;5011506;28;20214;-65
2024/03/10 06:08:11;;;;;;;23.87;13.83;;;8.40;5.70;;;;;;5011607;28;20285;-64
2024/03/10 06:10:41;;;;;;;58.40;26.90;;;8.40;6.40;;;;;;5026059;28;20336;-64
2024/03/10 06:13:10;;;;;;;35.73;18.40;;;8.50;1.00;;;;;;5011316;28;20323;-65
2024/03/10 06:15:39;;;;;;;23.10;13.43;;;8.60;1.00;;;;;;5012301;28;20665;-64
2024/03/10 06:18:18;;;;;;;24.67;13.87;;;8.60;1.00;;;;;;5010342;28;20225;-64
2024/03/10 06:26:21;;;;;;;19.57;12.37;;;8.50;1.00;;;;;;5012607;28;20198;-65
2024/03/10 06:28:50;;;;;;;23.20;12.63;;;8.50;1.00;;;;;;5012719;28;20287;-64
2024/03/10 06:31:19;;;;;;;17.87;11.70;;;8.50;1.00;;;;;;5023312;28;20218;-65
2024/03/10 06:33:49;;;;;;;20.90;11.87;;;8.50;1.00;;;;;;5011516;28;20222;-64
2024/03/10 06:36:18;;;;;;;23.70;13.53;;;8.50;1.00;;;;;;5013855;28;20230;-65
2024/03/10 06:38:46;;;;;;;20.93;12.00;;;8.40;6.30;;;;;;5012293;28;20275;-65
2024/03/10 06:41:14;;;;;;;34.63;18.93;;;8.40;4.30;;;;;;5011045;28;20229;-65
2024/03/10 06:43:45;;;;;;;33.90;19.27;;;8.30;13.10;;;;;;5009872;28;20312;-65
2024/03/10 06:46:14;;;;;;;25.77;15.33;;;8.30;1.80;;;;;;5012246;28;20222;-65
2024/03/10 06:48:42;;;;;;;27.23;16.30;;;8.30;1.00;;;;;;5012546;28;20301;-65
2024/03/10 06:51:11;;;;;;;24.97;15.77;;;8.30;13.60;;;;;;5001273;28;20580;-64
2024/03/10 06:53:39;;;;;;;25.57;15.53;;;8.20;12.30;;;;;;5010987;28;20194;-65
2024/03/10 06:56:08;;;;;;;21.97;13.83;;;8.20;11.70;;;;;;5010575;28;20217;-65
2024/03/10 06:58:37;;;;;;;24.23;13.20;;;8.20;16.80;;;;;;5010872;28;20221;-65
2024/03/10 07:01:07;;;;;;;21.07;12.47;;;8.20;17.50;;;;;;5009877;28;20224;-64
2024/03/10 07:03:35;;;;;;;20.77;12.87;;;8.20;16.50;;;;;;5005453;28;20755;-64
2024/03/10 07:06:06;;;;;;;19.17;12.03;;;8.20;17.70;;;;;;5007696;28;20742;-65
2024/03/10 07:08:35;;;;;;;18.93;11.93;;;8.30;24.50;;;;;;5009850;28;20194;-64
2024/03/10 07:11:04;;;;;;;18.87;12.03;;;8.30;29.30;;;;;;5011004;28;20680;-65
2024/03/10 07:13:33;;;;;;;22.37;12.47;;;8.30;30.50;;;;;;5009267;28;20214;-65
2024/03/10 07:16:02;;;;;;;22.33;12.23;;;8.30;45.20;;;;;;5008171;28;20295;-65
2024/03/10 07:18:32;;;;;;;21.87;12.87;;;8.30;47.00;;;;;;5008687;28;20221;-65
2024/03/10 07:21:00;;;;;;;21.63;12.27;;;8.30;50.00;;;;;;5011578;28;20225;-65
2024/03/10 07:23:29;;;;;;;17.37;11.30;;;8.30;52.20;;;;;;5006830;28;20643;-64
2024/03/10 07:25:57;;;;;;;28.90;16.13;;;8.30;51.90;;;;;;5008613;28;20216;-64
2024/03/10 07:28:26;;;;;;;53.87;27.57;;;8.40;51.00;;;;;;5009225;28;20225;-64
2024/03/10 07:30:55;;;;;;;45.53;24.20;;;8.40;40.60;;;;;;5023676;28;20226;-64
2024/03/10 07:33:23;;;;;;;55.43;28.50;;;8.50;42.10;;;;;;5009369;28;20224;-65
2024/03/10 07:35:53;;;;;;;52.07;27.63;;;8.60;19.90;;;;;;5014118;28;20233;-65
2024/03/10 07:38:22;;;;;;;68.97;33.37;;;8.60;16.00;;;;;;5009958;28;20288;-65
2024/03/10 07:40:50;;;;;;;46.90;23.73;;;8.70;12.10;;;;;;5011368;28;20260;-65
2024/03/10 07:43:25;;;;;;;42.90;21.87;;;8.70;1.00;;;;;;5011526;28;20229;-65
2024/03/10 07:45:53;;;;;;;41.97;21.50;;;8.70;1.00;;;;;;5011086;28;20221;-65
2024/03/10 07:48:22;;;;;;;46.87;23.70;;;8.80;1.00;;;;;;5009900;28;20244;-65
2024/03/10 07:50:50;;;;;;;55.40;26.93;;;8.80;1.00;;;;;;5007126;28;20236;-65
2024/03/10 07:53:21;;;;;;;28.67;15.17;;;8.90;1.00;;;;;;5009660;28;20198;-65
2024/03/10 07:55:50;;;;;;;23.20;13.83;;;8.90;1.00;;;;;;4986362;28;20218;-65
2024/03/10 07:58:18;;;;;;;21.97;12.87;;;8.90;1.00;;;;;;5005845;28;20227;-64
2024/03/10 08:00:46;;;;;;;22.03;12.73;;;9.00;1.00;;;;;;5006770;28;20681;-65
2024/03/10 08:03:15;;;;;;;17.80;11.93;;;9.00;1.00;;;;;;5009097;28;20681;-65
2024/03/10 08:05:43;;;;;;;19.43;12.67;;;9.10;1.00;;;;;;5004019;28;20684;-64
2024/03/10 08:08:12;;;;;;;24.57;13.40;;;9.20;1.00;;;;;;5006676;28;20194;-64
2024/03/10 08:10:42;;;;;;;20.57;12.67;;;9.30;1.00;;;;;;5008397;28;20247;-64
2024/03/10 08:13:10;;;;;;;20.07;12.87;;;9.30;1.00;;;;;;5010130;28;20245;-65
2024/03/10 08:15:39;;;;;;;20.87;13.03;;;9.30;1.00;;;;;;5010979;28;20229;-65
2024/03/10 08:18:08;;;;;;;19.50;12.77;;;9.40;1.00;;;;;;5009953;28;20820;-64
2024/03/10 08:20:37;;;;;;;21.17;13.27;;;9.50;1.00;;;;;;5010393;28;20272;-65
2024/03/10 08:23:06;;;;;;;21.33;13.23;;;9.50;1.00;;;;;;5006610;28;20202;-65
2024/03/10 08:25:35;;;;;;;20.03;12.20;;;9.50;1.00;;;;;;5007146;28;20577;-65
2024/03/10 08:28:05;;;;;;;22.20;13.17;;;9.60;1.00;;;;;;5006993;28;20217;-65
2024/03/10 08:30:34;;;;;;;20.90;12.47;;;9.60;1.00;;;;;;5006566;28;20783;-65
2024/03/10 08:33:04;;;;;;;19.20;12.63;;;9.70;1.00;;;;;;5003560;28;20712;-65
2024/03/10 08:35:32;;;;;;;23.87;13.57;;;9.70;1.00;;;;;;5008997;28;20194;-64
2024/03/10 08:38:01;;;;;;;18.17;12.70;;;9.70;1.00;;;;;;5010272;28;20288;-65
2024/03/10 08:40:29;;;;;;;19.30;12.43;;;9.80;1.00;;;;;;5010074;28;20221;-65
2024/03/10 08:42:58;;;;;;;20.37;12.53;;;9.80;1.00;;;;;;5009453;28;20337;-65
2024/03/10 08:45:29;;;;;;;21.23;12.67;;;9.90;1.00;;;;;;5009431;28;20218;-65
2024/03/10 08:47:57;;;;;;;18.60;12.67;;;9.90;1.00;;;;;;5010349;28;20276;-65
2024/03/10 08:50:28;;;;;;;17.63;12.50;;;10.00;1.00;;;;;;5007663;28;20944;-64
2024/03/10 08:52:57;;;;;;;22.37;13.90;;;10.00;1.00;;;;;;5007229;28;20249;-65
2024/03/10 08:55:25;;;;;;;21.80;13.13;;;10.10;1.00;;;;;;5002950;28;20214;-65
2024/03/10 08:57:53;;;;;;;20.03;13.17;;;10.10;1.00;;;;;;5007624;28;20240;-65
2024/03/10 09:00:22;;;;;;;23.50;13.23;;;10.10;1.00;;;;;;5008420;28;20736;-65
2024/03/10 09:02:53;;;;;;;19.47;13.30;;;10.10;1.00;;;;;;5007868;28;20228;-65
2024/03/10 09:05:23;;;;;;;23.27;13.63;;;10.10;1.00;;;;;;5001886;28;20245;-65
2024/03/10 09:07:53;;;;;;;20.13;13.03;;;10.10;1.00;;;;;;5006916;28;20700;-65
2024/03/10 09:10:23;;;;;;;22.00;12.73;;;10.20;1.00;;;;;;5008390;28;20248;-65
2024/03/10 09:12:52;;;;;;;21.13;12.97;;;10.30;1.00;;;;;;5007800;28;20228;-65
2024/03/10 09:15:21;;;;;;;20.97;13.00;;;10.30;1.00;;;;;;5008261;28;20596;-65
2024/03/10 09:17:52;;;;;;;19.23;12.57;;;10.40;1.00;;;;;;5008891;28;20221;-65
2024/03/10 09:20:20;;;;;;;23.00;12.20;;;10.50;1.00;;;;;;5008929;28;20252;-65
2024/03/10 09:22:51;;;;;;;18.90;12.27;;;10.60;1.00;;;;;;5005688;28;20226;-65
2024/03/10 09:25:23;;;;;;;18.63;12.37;;;10.60;1.00;;;;;;5007205;28;20214;-65
2024/03/10 09:27:53;;;;;;;19.77;13.07;;;10.70;1.00;;;;;;5022486;28;20677;-65
2024/03/10 09:30:24;;;;;;;110.20;38.03;;;10.70;1.00;;;;;;5001554;28;20267;-65
2024/03/10 09:32:55;;;;;;;26.70;17.03;;;10.70;1.00;;;;;;5007327;28;20226;-65
2024/03/10 09:35:28;;;;;;;20.77;13.83;;;10.60;1.00;;;;;;5009448;28;20198;-65
2024/03/10 09:38:00;;;;;;;23.80;14.57;;;10.50;1.00;;;;;;5008446;28;20217;-65
2024/03/10 09:40:31;;;;;;;23.53;13.07;;;10.50;1.00;;;;;;5008575;28;20224;-65
2024/03/10 09:43:00;;;;;;;18.57;12.60;;;10.60;1.00;;;;;;5006705;28;20232;-65
2024/03/10 09:45:28;;;;;;;19.73;13.20;;;10.70;1.00;;;;;;5000742;28;20222;-65
2024/03/10 09:48:01;;;;;;;20.93;13.00;;;10.70;1.00;;;;;;4994662;28;20592;-65
2024/03/10 09:50:31;;;;;;;19.90;12.97;;;10.70;1.00;;;;;;5011401;28;20200;-64
2024/03/10 09:52:59;;;;;;;19.07;12.87;;;10.80;1.00;;;;;;5012068;28;20194;-65
2024/03/10 09:55:28;;;;;;;26.30;15.87;;;10.80;1.00;;;;;;5011489;28;20222;-65
2024/03/10 09:57:59;;;;;;;22.83;14.30;;;10.80;1.00;;;;;;5009392;28;20596;-65
2024/03/10 10:00:31;;;;;;;18.80;12.93;;;10.80;1.00;;;;;;5011889;28;20798;-65
2024/03/10 10:03:03;;;;;;;24.20;13.07;;;10.80;1.00;;;;;;5012883;28;20218;-66
2024/03/10 10:05:38;;;;;;;20.40;13.17;;;10.80;1.00;;;;;;5003623;28;20198;-65
2024/03/10 10:08:10;;;;;;;22.13;13.47;;;10.80;1.00;;;;;;5002379;28;20652;-65
2024/03/10 10:10:42;;;;;;;18.30;13.27;;;10.80;1.00;;;;;;5005275;28;20238;-65
2024/03/10 10:13:22;;;;;;;37.47;23.83;;;10.70;1.00;;;;;;5008991;28;20363;-65
2024/03/10 10:15:52;;;;;;;24.10;15.53;;;10.80;1.00;;;;;;5006735;28;20657;-65
2024/03/10 10:18:22;;;;;;;27.17;14.30;;;10.70;1.00;;;;;;5010138;28;20213;-65
2024/03/10 10:20:54;;;;;;;21.63;14.40;;;10.70;1.00;;;;;;5011973;28;20572;-65
2024/03/10 10:23:23;;;;;;;24.00;14.93;;;10.70;1.00;;;;;;5006632;28;20561;-65
2024/03/10 10:25:53;;;;;;;22.07;13.57;;;10.70;1.00;;;;;;5008623;28;20581;-65
2024/03/10 10:28:22;;;;;;;22.43;13.80;;;10.70;1.00;;;;;;5005554;28;20225;-65
2024/03/10 10:30:50;;;;;;;22.07;13.57;;;10.80;1.00;;;;;;5005637;28;20226;-65
2024/03/10 10:33:19;;;;;;;23.40;14.63;;;10.90;1.00;;;;;;5008395;28;20229;-65
2024/03/10 10:35:48;;;;;;;24.80;16.37;;;11.00;1.00;;;;;;5007511;28;20896;-65
2024/03/10 10:38:20;;;;;;;30.23;16.43;;;11.00;1.00;;;;;;5009173;28;20256;-65
2024/03/10 10:40:51;;;;;;;25.23;15.60;;;11.00;8.80;;;;;;5006776;28;20824;-65
2024/03/10 10:43:21;;;;;;;27.57;16.37;;;11.00;20.60;;;;;;5022764;28;20352;-65
2024/03/10 10:45:49;;;;;;;25.20;15.43;;;11.00;26.50;;;;;;5005510;28;20222;-65
2024/03/10 10:48:20;;;;;;;26.70;16.17;;;11.00;19.60;;;;;;5008207;28;20305;-65
2024/03/10 10:50:51;;;;;;;23.17;15.03;;;11.10;8.10;;;;;;5003986;28;20637;-65
2024/03/10 10:53:20;;;;;;;23.83;15.00;;;11.10;7.40;;;;;;5007191;28;20195;-65
2024/03/10 10:55:49;;;;;;;24.13;15.60;;;11.20;2.20;;;;;;5005534;28;20225;-65
2024/03/10 10:58:21;;;;;;;24.57;15.83;;;11.20;1.00;;;;;;5004916;28;20221;-65
2024/03/10 11:00:50;;;;;;;26.77;15.67;;;11.10;1.00;;;;;;5008432;28;20241;-65
2024/03/10 11:03:24;;;;;;;25.90;15.40;;;11.10;1.00;;;;;;5007160;28;20241;-65
2024/03/10 11:06:27;;;;;;;26.33;14.50;;;11.10;1.00;;;;;;5003514;28;20316;-65
2024/03/10 11:08:56;;;;;;;24.90;15.67;;;11.10;1.00;;;;;;4993003;28;20292;-64
2024/03/10 11:11:48;;;;;;;23.70;14.77;;;11.10;1.00;;;;;;5004008;28;20233;-64
2024/03/10 11:14:21;;;;;;;22.97;14.87;;;11.10;1.00;;;;;;5007299;28;20327;-65
2024/03/10 11:16:50;;;;;;;26.63;16.30;;;11.20;1.00;;;;;;5005466;28;20292;-65
2024/03/10 11:19:23;;;;;;;26.10;16.30;;;11.10;1.00;;;;;;5004646;28;20257;-65
2024/03/10 11:21:53;;;;;;;25.53;15.70;;;11.10;1.00;;;;;;5005183;28;20217;-65
2024/03/10 11:24:25;;;;;;;24.93;16.23;;;11.10;1.00;;;;;;5008055;28;20612;-65
2024/03/10 11:27:18;;;;;;;24.53;15.37;;;11.20;1.00;;;;;;5009644;28;20632;-65
2024/03/10 11:29:48;;;;;;;27.27;15.63;;;11.10;1.00;;;;;;5007303;28;20233;-65
2024/03/10 11:32:35;;;;;;;25.53;15.40;;;11.00;1.00;;;;;;5006254;28;20198;-64
2024/03/10 11:35:08;;;;;;;26.07;16.40;;;11.00;1.00;;;;;;5009073;28;20252;-65
2024/03/10 11:37:38;;;;;;;23.97;15.33;;;11.10;1.00;;;;;;5008410;28;20601;-65
2024/03/10 11:40:15;;;;;;;26.13;15.10;;;11.30;1.00;;;;;;5008408;28;20585;-65
2024/03/10 11:42:45;;;;;;;29.57;17.13;;;11.30;1.00;;;;;;5005405;28;20583;-65
2024/03/10 11:45:13;;;;;;;24.90;15.60;;;11.40;1.00;;;;;;5005841;28;20761;-65
2024/03/10 11:47:44;;;;;;;24.37;15.67;;;11.50;1.00;;;;;;5007403;28;20305;-65
2024/03/10 11:50:14;;;;;;;23.37;14.87;;;11.60;1.00;;;;;;5021948;28;20589;-64
2024/03/10 11:52:45;;;;;;;21.53;14.40;;;11.70;1.00;;;;;;5006484;28;20214;-64
2024/03/10 11:55:14;;;;;;;27.87;15.43;;;11.90;1.00;;;;;;5024715;28;20236;-64
2024/03/10 11:57:43;;;;;;;31.87;17.53;;;12.00;1.00;;;;;;5011011;28;20232;-64
2024/03/10 12:00:15;;;;;;;24.90;14.93;;;12.10;1.00;;;;;;5007079;28;20246;-64
2024/03/10 12:02:44;;;;;;;21.83;14.27;;;12.10;1.00;;;;;;5004621;28;20288;-65
2024/03/10 12:05:15;;;;;;;21.20;14.43;;;12.10;1.00;;;;;;5009945;28;20591;-65
2024/03/10 12:07:49;;;;;;;22.27;15.07;;;12.20;1.00;;;;;;5002811;28;20218;-64
2024/03/10 12:10:19;;;;;;;28.27;15.60;;;11.90;1.00;;;;;;5001337;28;20727;-65
2024/03/10 12:12:51;;;;;;;24.07;15.33;;;11.80;1.00;;;;;;5005814;28;20283;-65
2024/03/10 12:15:20;;;;;;;22.93;15.43;;;11.80;1.00;;;;;;5005859;28;20233;-65
2024/03/10 12:17:49;;;;;;;25.60;15.13;;;12.00;1.00;;;;;;5007427;28;20218;-64
2024/03/10 12:20:19;;;;;;;25.20;15.03;;;12.10;1.00;;;;;;5006884;28;20214;-64
2024/03/10 12:22:50;;;;;;;21.67;14.30;;;12.20;1.00;;;;;;5004076;28;20222;-65
2024/03/10 12:25:19;;;;;;;24.30;15.07;;;12.40;1.00;;;;;;5006605;28;20623;-65
2024/03/10 12:27:49;;;;;;;25.57;15.33;;;12.60;1.00;;;;;;5000800;28;20249;-64
2024/03/10 12:30:21;;;;;;;23.40;14.67;;;12.50;1.00;;;;;;5004622;28;20232;-64
2024/03/10 12:32:50;;;;;;;21.50;14.83;;;12.50;1.00;;;;;;5006520;28;20232;-65
2024/03/10 12:35:21;;;;;;;23.03;15.23;;;12.70;1.00;;;;;;5003523;28;20209;-64
2024/03/10 12:37:52;;;;;;;22.17;15.13;;;12.70;1.00;;;;;;5004072;28;20744;-65
2024/03/10 12:40:21;;;;;;;26.87;14.93;;;12.80;1.00;;;;;;5001081;28;20233;-65
2024/03/10 12:42:50;;;;;;;23.57;15.07;;;12.80;1.00;;;;;;5004352;28;20240;-64
2024/03/10 12:45:20;;;;;;;24.43;15.40;;;12.80;1.00;;;;;;5006412;28;20221;-65
2024/03/10 12:47:50;;;;;;;22.57;14.33;;;12.70;1.00;;;;;;5004489;28;20222;-65
2024/03/10 12:50:19;;;;;;;25.17;15.63;;;12.70;1.00;;;;;;5003790;28;20202;-65
2024/03/10 12:52:48;;;;;;;21.80;14.37;;;12.70;1.00;;;;;;5006534;28;20233;-65
2024/03/10 12:55:18;;;;;;;24.97;15.23;;;12.70;1.00;;;;;;5001911;28;20233;-65
2024/03/10 12:57:47;;;;;;;21.77;14.13;;;12.70;1.00;;;;;;5001421;28;20908;-66
2024/03/10 13:00:27;;;;;;;23.00;14.67;;;12.70;1.00;;;;;;5005017;28;20226;-65
2024/03/10 13:02:59;;;;;;;23.60;15.30;;;12.80;1.00;;;;;;5007752;28;20229;-65
2024/03/10 13:05:28;;;;;;;25.10;15.83;;;12.90;1.00;;;;;;5004129;28;20670;-64
2024/03/10 13:08:00;;;;;;;22.93;14.83;;;13.00;1.00;;;;;;5001803;28;20289;-65
2024/03/10 13:10:32;;;;;;;23.97;14.77;;;13.20;1.00;;;;;;4995747;28;20240;-66
2024/03/10 13:13:02;;;;;;;23.77;15.57;;;13.60;1.00;;;;;;5005241;28;20215;-65
2024/03/10 13:15:31;;;;;;;25.27;15.43;;;14.00;1.00;;;;;;5002691;28;20228;-65
2024/03/10 13:17:59;;;;;;;22.90;15.23;;;14.80;1.00;;;;;;5003918;28;20233;-65
2024/03/10 13:20:28;;;;;;;22.70;14.90;;;15.40;99.90;;;;;;5007733;28;20199;-65